createdAt,value
2022-09-25T00:02:59.295Z,101475.66
2022-09-25T00:08:21.143Z,101479.50
2022-09-25T00:13:44.566Z,101484.22
2022-09-25T00:19:25.082Z,101479.50
2022-09-25T00:24:47.036Z,101483.41
2022-09-25T00:30:10.889Z,101476.16
2022-09-25T00:35:33.835Z,101482.78
2022-09-25T00:40:56.079Z,101483.00
2022-09-25T00:46:27.866Z,101490.25
2022-09-25T00:51:55.633Z,101494.09
2022-09-25T00:57:26.876Z,101501.59
2022-09-25T01:02:54.021Z,101505.47
2022-09-25T01:08:20.424Z,101502.69
2022-09-25T01:13:42.390Z,101501.00
2022-09-25T01:19:29.164Z,101504.84
2022-09-25T01:24:53.562Z,101507.88
2022-09-25T01:30:18.858Z,101509.78
2022-09-25T01:35:52.409Z,101518.09
2022-09-25T01:41:30.561Z,101512.56
2022-09-25T01:46:54.111Z,101510.88
2022-09-25T01:52:21.079Z,101511.13
2022-09-25T01:57:53.907Z,101520.28
2022-09-25T02:03:25.811Z,101522.22
2022-09-25T02:08:54.143Z,101524.16
2022-09-25T02:14:21.968Z,101527.16
2022-09-25T02:20:06.483Z,101525.25
2022-09-25T02:25:38.592Z,101516.91
2022-09-25T02:31:02.151Z,101520.78
2022-09-25T02:36:24.290Z,101518.81
2022-09-25T02:41:48.738Z,101510.75
2022-09-25T02:47:34.833Z,101509.66
2022-09-25T02:53:08.353Z,101512.44
2022-09-25T02:58:37.174Z,101503.50
2022-09-25T03:04:00.616Z,101507.34
2022-09-25T03:09:23.661Z,101514.00
2022-09-25T03:14:45.431Z,101507.34
2022-09-25T03:20:10.175Z,101503.16
2022-09-25T03:25:31.853Z,101506.75
2022-09-25T03:31:01.309Z,101514.00
2022-09-25T03:36:25.165Z,101517.00
2022-09-25T03:41:48.007Z,101514.47
2022-09-25T03:47:09.734Z,101511.06
2022-09-25T03:52:31.460Z,101518.31
2022-09-25T03:57:53.173Z,101516.63
2022-09-25T04:03:18.379Z,101507.47
2022-09-25T04:08:40.255Z,101509.41
2022-09-25T04:14:02.281Z,101508.78
2022-09-25T04:19:23.977Z,101510.69
2022-09-25T04:24:51.314Z,101509.88
2022-09-25T04:30:13.398Z,101520.97
2022-09-25T04:35:35.071Z,101513.72
2022-09-25T04:40:58.068Z,101509.25
2022-09-25T04:46:22.317Z,101507.31
2022-09-25T04:51:44.456Z,101507.56
2022-09-25T04:57:06.172Z,101514.19
2022-09-25T05:02:28.571Z,101512.50
2022-09-25T05:07:54.364Z,101512.50
2022-09-25T05:13:16.086Z,101505.25
2022-09-25T05:18:37.780Z,101505.25
2022-09-25T05:23:59.774Z,101501.00
2022-09-25T05:29:21.450Z,101501.00
2022-09-25T05:34:43.083Z,101491.84
2022-09-25T05:40:05.222Z,101489.06
2022-09-25T05:45:26.864Z,101494.63
2022-09-25T05:50:55.546Z,101500.38
2022-09-25T05:56:17.491Z,101504.63
2022-09-25T06:01:39.341Z,101494.78
2022-09-25T06:07:02.734Z,101494.06
2022-09-25T06:12:25.022Z,101499.97
2022-09-25T06:17:46.654Z,101497.81
2022-09-25T06:23:08.291Z,101507.22
2022-09-25T06:28:31.185Z,101507.22
2022-09-25T06:33:52.966Z,101510.84
2022-09-25T06:39:14.695Z,101514.47
2022-09-25T06:44:36.712Z,101518.31
2022-09-25T06:49:58.386Z,101516.63
2022-09-25T06:55:20.006Z,101513.00
2022-09-25T07:00:45.846Z,101514.97
2022-09-25T07:06:09.110Z,101511.31
2022-09-25T07:11:31.555Z,101523.50
2022-09-25T07:16:53.227Z,101520.72
2022-09-25T07:22:14.878Z,101527.34
2022-09-25T07:27:37.056Z,101540.03
2022-09-25T07:33:00.285Z,101543.97
2022-09-25T07:38:22.881Z,101547.38
2022-09-25T07:43:45.283Z,101540.69
2022-09-25T07:49:07.246Z,101529.72
2022-09-25T07:54:28.907Z,101545.66
2022-09-25T07:59:50.617Z,101533.78
2022-09-25T08:05:12.526Z,101530.47
2022-09-25T08:10:34.200Z,101528.31
2022-09-25T08:15:56.697Z,101531.13
2022-09-25T08:21:20.579Z,101521.28
2022-09-25T08:26:42.247Z,101535.06
2022-09-25T08:32:03.911Z,101536.94
2022-09-25T08:37:25.569Z,101531.06
2022-09-25T08:42:52.572Z,101543.16
2022-09-25T08:48:41.545Z,101540.53
2022-09-25T08:54:04.843Z,101533.72
2022-09-25T08:59:33.699Z,101535.38
2022-09-25T09:04:58.042Z,101525.63
2022-09-25T09:10:34.201Z,101515.41
2022-09-25T09:16:04.286Z,101523.06
2022-09-25T09:21:45.932Z,101523.81
2022-09-25T09:27:33.542Z,101522.84
2022-09-25T09:33:28.144Z,101515.59
2022-09-25T09:39:20.258Z,101520.78
2022-09-25T09:44:50.248Z,101517.63
2022-09-25T09:50:12.000Z,101507.03
2022-09-25T09:55:45.296Z,101508.94
2022-09-25T10:01:28.935Z,101501.09
2022-09-25T10:07:14.141Z,101506.06
2022-09-25T10:12:37.704Z,101492.31
2022-09-25T10:18:02.147Z,101505.00
2022-09-25T10:23:47.028Z,101505.75
2022-09-25T10:29:40.881Z,101498.13
2022-09-25T10:35:03.727Z,101500.31
2022-09-25T10:40:28.205Z,101502.22
2022-09-25T10:46:13.156Z,101502.59
2022-09-25T10:51:34.921Z,101503.69
2022-09-25T10:56:56.812Z,101503.22
2022-09-25T11:02:40.373Z,101495.38
2022-09-25T11:08:05.662Z,101497.06
2022-09-25T11:13:30.660Z,101489.31
2022-09-25T11:19:07.696Z,101483.50
2022-09-25T11:24:44.431Z,101488.84
2022-09-25T11:30:20.245Z,101477.22
2022-09-25T11:35:56.855Z,101483.03
2022-09-25T11:41:41.583Z,101489.69
2022-09-25T11:47:35.087Z,101479.03
2022-09-25T11:53:06.304Z,101470.63
2022-09-25T11:58:46.295Z,101467.22
2022-09-25T12:04:07.920Z,101468.56
2022-09-25T12:09:52.973Z,101448.88
2022-09-25T12:15:36.668Z,101442.22
2022-09-25T12:21:06.812Z,101429.69
2022-09-25T12:26:52.712Z,101428.22
2022-09-25T12:32:23.098Z,101430.28
2022-09-25T12:38:11.998Z,101423.31
2022-09-25T12:43:41.377Z,101417.63
2022-09-25T12:49:27.027Z,101415.94
2022-09-25T12:54:58.324Z,101409.53
2022-09-25T13:00:23.714Z,101408.31
2022-09-25T13:06:06.162Z,101398.91
2022-09-25T13:11:39.198Z,101394.66
2022-09-25T13:17:01.431Z,101392.28
2022-09-25T13:22:25.309Z,101392.88
2022-09-25T13:27:47.577Z,101385.16
2022-09-25T13:33:20.272Z,101374.88
2022-09-25T13:39:04.802Z,101368.50
2022-09-25T13:44:41.282Z,101375.13
2022-09-25T13:50:17.663Z,101372.34
2022-09-25T13:55:48.228Z,101362.94
2022-09-25T14:01:33.478Z,101353.50
2022-09-25T14:07:04.922Z,101345.19
2022-09-25T14:12:42.431Z,101343.22
2022-09-25T14:18:09.072Z,101338.50
2022-09-25T14:23:33.512Z,101331.03
2022-09-25T14:28:57.385Z,101338.28
2022-09-25T14:34:30.787Z,101335.25
2022-09-25T14:40:22.398Z,101333.91
2022-09-25T14:46:01.496Z,101333.41
2022-09-25T14:51:27.328Z,101329.81
2022-09-25T14:56:55.050Z,101316.53
2022-09-25T15:02:26.631Z,101309.88
2022-09-25T15:07:48.359Z,101303.72
2022-09-25T15:13:20.960Z,101310.09
2022-09-25T15:18:56.321Z,101305.41
2022-09-25T15:24:24.630Z,101307.59
2022-09-25T15:29:48.342Z,101296.47
2022-09-25T15:35:17.495Z,101300.34
2022-09-25T15:40:40.413Z,101300.00
2022-09-25T15:46:07.900Z,101295.75
2022-09-25T15:51:33.698Z,101298.78
2022-09-25T15:56:57.442Z,101296.75
2022-09-25T16:02:40.038Z,101293.63
2022-09-25T16:08:24.219Z,101287.44
2022-09-25T16:13:49.306Z,101279.88
2022-09-25T16:19:41.093Z,101292.28
2022-09-25T16:25:02.949Z,101293.63
2022-09-25T16:30:24.713Z,101294.72
2022-09-25T16:36:10.253Z,101306.09
2022-09-25T16:41:30.546Z,101304.41
2022-09-25T16:46:54.958Z,101306.56
2022-09-25T16:52:20.993Z,101300.19
2022-09-25T16:57:46.145Z,101292.94
2022-09-25T17:03:12.199Z,101296.81
2022-09-25T17:08:33.915Z,101299.56
2022-09-25T17:13:56.398Z,101299.81
2022-09-25T17:19:19.315Z,101297.28
2022-09-25T17:24:41.108Z,101290.03
2022-09-25T17:30:02.793Z,101293.91
2022-09-25T17:35:46.402Z,101286.19
2022-09-25T17:41:20.848Z,101282.81
2022-09-25T17:46:43.050Z,101290.03
2022-09-25T17:52:05.264Z,101276.75
2022-09-25T17:57:27.848Z,101267.34
2022-09-25T18:02:49.630Z,101281.84
2022-09-25T18:08:12.546Z,101274.13
2022-09-25T18:13:37.868Z,101263.84
2022-09-25T18:19:21.906Z,101260.81
2022-09-25T18:24:43.588Z,101266.34
2022-09-25T18:30:05.892Z,101275.53
2022-09-25T18:35:27.577Z,101271.69
2022-09-25T18:40:49.357Z,101281.69
2022-09-25T18:46:11.148Z,101271.41
2022-09-25T18:51:34.211Z,101264.19
2022-09-25T18:56:58.646Z,101269.72
2022-09-25T19:02:25.090Z,101254.75
2022-09-25T19:07:46.840Z,101254.75
2022-09-25T19:13:08.575Z,101250.91
2022-09-25T19:18:30.212Z,101247.28
2022-09-25T19:23:52.233Z,101243.44
2022-09-25T19:29:14.072Z,101241.47
2022-09-25T19:34:36.110Z,101238.69
2022-09-25T19:40:16.768Z,101235.94
2022-09-25T19:45:38.508Z,101230.38
2022-09-25T19:51:06.273Z,101235.66
2022-09-25T19:56:27.905Z,101233.97
2022-09-25T20:01:49.597Z,101222.66
2022-09-25T20:07:15.611Z,101217.91
2022-09-25T20:12:37.229Z,101211.53
2022-09-25T20:17:59.607Z,101219.00
2022-09-25T20:23:21.253Z,101205.97
2022-09-25T20:28:43.795Z,101191.84
2022-09-25T20:34:06.344Z,101194.38
2022-09-25T20:39:28.235Z,101187.16
2022-09-25T20:44:50.124Z,101182.44
2022-09-25T20:50:11.865Z,101181.59
2022-09-25T20:55:38.110Z,101172.19
2022-09-25T21:01:02.586Z,101173.00
2022-09-25T21:06:27.090Z,101170.72
2022-09-25T21:11:49.538Z,101164.34
2022-09-25T21:17:11.481Z,101151.81
2022-09-25T21:22:33.250Z,101137.31
2022-09-25T21:27:55.498Z,101140.34
2022-09-25T21:33:17.193Z,101138.06
2022-09-25T21:38:39.474Z,101131.94
2022-09-25T21:44:07.461Z,101142.44
2022-09-25T21:49:29.633Z,101134.59
2022-09-25T21:54:51.388Z,101132.91
2022-09-25T22:00:13.948Z,101141.22
2022-09-25T22:05:36.316Z,101127.00
2022-09-25T22:10:59.186Z,101128.97
2022-09-25T22:16:26.842Z,101124.50
2022-09-25T22:21:50.299Z,101123.91
2022-09-25T22:27:11.969Z,101120.53
2022-09-25T22:32:33.638Z,101118.84
2022-09-25T22:37:55.294Z,101100.28
2022-09-25T22:43:17.010Z,101101.59
2022-09-25T22:48:39.653Z,101096.91
2022-09-25T22:54:01.335Z,101102.69
2022-09-25T22:59:23.031Z,101092.66
2022-09-25T23:04:46.282Z,101086.03
2022-09-25T23:10:08.585Z,101067.94
2022-09-25T23:15:30.452Z,101057.94
2022-09-25T23:20:54.189Z,101038.50
2022-09-25T23:26:15.899Z,101037.69
2022-09-25T23:31:37.561Z,101026.59
2022-09-25T23:36:59.209Z,101013.81
2022-09-25T23:42:22.291Z,100989.91
2022-09-25T23:47:44.129Z,100995.47
2022-09-25T23:53:06.121Z,100991.00
2022-09-25T23:58:28.349Z,100977.13
